< Typhoon 196229 1962 Season Typhoon 196301 >
Typhoon 196230 (NADINE)
General InformationTrack Information on Google Maps || Disaster Info.ResourceGoogle EarthGE AnimationAtom FeedGeoJSON
Detalied Best Track (Time Zone = UTC)
Year Month Day Hour Lat. Long. Pressure (hPa) Wind (kt) Class Image Chart
1962 12 5 18 7.0 140.5 1002 0 2 -- Chart
1962 12 6 00 8.0 141.0 1002 0 2 -- Chart
1962 12 6 06 9.0 142.0 1002 0 2 -- Chart
1962 12 6 12 10.0 142.0 1002 0 2 -- Chart
1962 12 6 18 11.0 142.7 998 0 2 -- Chart
1962 12 7 00 12.1 143.2 996 0 2 -- Chart
1962 12 7 06 12.6 142.6 996 0 2 -- Chart
1962 12 7 12 12.9 142.9 996 0 2 -- Chart
1962 12 7 18 13.3 143.2 994 0 2 -- Chart
1962 12 8 00 13.5 143.6 994 0 2 -- Chart
1962 12 8 06 14.3 144.6 990 0 9 -- Chart
1962 12 8 12 15.1 145.9 988 0 9 -- Chart
1962 12 8 18 16.3 147.3 986 0 9 -- Chart
1962 12 9 00 17.7 148.6 985 0 9 -- Chart
1962 12 9 06 20.2 150.4 980 0 9 -- Chart
1962 12 9 12 22.4 152.5 980 0 9 -- Chart
1962 12 9 18 24.0 155.0 980 0 9 -- Chart
1962 12 10 00 26.6 157.8 980 0 9 -- Chart
1962 12 10 06 30.2 161.5 980 0 9 -- Chart
1962 12 10 12 31.4 164.0 980 0 9 -- Chart
1962 12 10 18 32.0 167.0 975 0 9 -- Chart
1962 12 11 00 33.5 171.0 974 0 6 -- Chart
1962 12 11 06 35.0 174.0 976 0 6 -- Chart
1962 12 11 12 35.0 178.0 976 0 6 -- Chart
1962 12 11 18 34.0 183.0 976 0 6 -- Chart
Japan Meteorological Agency Best Track Data | Correction Date : 1989-06-01
< Typhoon 196229 1962 Season Typhoon 196301 >

Help